• Join FlightAware (Why Join?)
  • Login
  • US Flag 
01:54AM EDT


 

Airport Tracker/Info


-or-


 

Live Flight TrackerFlight Track Log ✈ LAN930 ✈ 29-Apr-2013 ✈ SCEL / SCL - SAME / MDZ

Flight Track Log - Related Links

Times and Time Zones

All times are in EDT time to prevent confusion due to time zone crossing. See the LAN930 flight status page for this flight to view local times or setup timezone preferences in your user account.

Time Position Orientation Groundspeed Altitude Reporting Facility
EDT Latitude Longitude Course Direction KTS MPH feet Rate Location/Type
09:49AM -33.4520 -70.8000 North 3,500  Level FlightAware
09:52AM -33.6510 -70.7340 165° South 296 341 11,700 2,400 Climbing FlightAware
09:52AM -33.6590 -70.6820 100° East 336 387 12,300 1,020 Climbing FlightAware
09:53AM -33.6710 -70.6120 102° East 378 435 13,000 2,040 Climbing FlightAware
09:54AM -33.6930 -70.4950 103° East 400 460 15,200 2,640 Climbing FlightAware
09:55AM -33.7130 -70.3830 102° East 409 471 17,400 2,940 Climbing FlightAware
09:55AM -33.7310 -70.2810 102° East 397 457 19,900 1,920 Climbing FlightAware
09:56AM -33.7460 -70.1960 102° East 401 461 20,500 360 Climbing FlightAware
09:57AM -33.7610 -70.1030 101° East 401 461 20,500  Level FlightAware
09:58AM -33.7730 -70.0280 101° East 401 461 20,500  Level FlightAware
09:58AM -33.7850 -69.9540 101° East 401 461 20,500  Level FlightAware
09:59AM -33.7970 -69.8790 101° East 401 461 20,500  Level FlightAware
10:00AM -33.8090 -69.8050 101° East 401 461 20,500  Level FlightAware
10:02AM -33.7599 -69.7534 41° Northeast  Level Estimated
10:03AM -33.7339 -69.7261 41° Northeast  Level Estimated
10:04AM -33.7078 -69.6988 41° Northeast  Level Estimated
10:05AM -33.6818 -69.6714 41° Northeast  Level Estimated
10:06AM -33.6557 -69.6441 41° Northeast  Level Estimated
10:07AM -33.6296 -69.6169 41° Northeast  Level Estimated
10:08AM -33.6035 -69.5896 41° Northeast  Level Estimated
10:09AM -33.5774 -69.5623 41° Northeast  Level Estimated
10:10AM -33.5513 -69.5351 41° Northeast  Level Estimated
10:11AM -33.5252 -69.5079 41° Northeast  Level Estimated
10:12AM -33.4991 -69.4807 41° Northeast  Level Estimated
10:13AM -33.4730 -69.4535 41° Northeast  Level Estimated
10:14AM -33.4469 -69.4263 41° Northeast  Level Estimated
10:15AM -33.4207 -69.3992 41° Northeast  Level Estimated
10:16AM -33.3946 -69.3720 41° Northeast  Level Estimated
10:17AM -33.3685 -69.3449 41° Northeast  Level Estimated
10:18AM -33.3423 -69.3178 41° Northeast  Level Estimated
10:19AM -33.3162 -69.2907 41° Northeast  Level Estimated
10:20AM -33.2900 -69.2636 41° Northeast  Level Estimated
10:21AM -33.2639 -69.2366 41° Northeast  Level Estimated
10:22AM -33.2377 -69.2095 41° Northeast  Level Estimated
10:23AM -33.2115 -69.1825 41° Northeast  Level Estimated
10:24AM -33.1853 -69.1555 41° Northeast  Level Estimated